sensor_id;sensor_type;location;lat;lon;timestamp;P1;durP1;ratioP1;P2;durP2;ratioP2
72895;SDS011;61036;53.224;6.554;2022-07-23T00:02:48;6.53;;;3.87;;
72895;SDS011;61036;53.224;6.554;2022-07-23T00:05:16;9.17;;;4.43;;
72895;SDS011;61036;53.224;6.554;2022-07-23T00:07:53;7.70;;;3.73;;
72895;SDS011;61036;53.224;6.554;2022-07-23T00:10:41;6.10;;;3.83;;
72895;SDS011;61036;53.224;6.554;2022-07-23T00:13:18;5.60;;;3.83;;
72895;SDS011;61036;53.224;6.554;2022-07-23T00:16:14;7.70;;;4.30;;
72895;SDS011;61036;53.224;6.554;2022-07-23T00:18:52;7.97;;;4.13;;
72895;SDS011;61036;53.224;6.554;2022-07-23T00:21:41;7.27;;;4.23;;
72895;SDS011;61036;53.224;6.554;2022-07-23T00:24:22;6.53;;;3.83;;
72895;SDS011;61036;53.224;6.554;2022-07-23T00:27:04;8.33;;;4.70;;
72895;SDS011;61036;53.224;6.554;2022-07-23T00:30:08;7.10;;;4.43;;
72895;SDS011;61036;53.224;6.554;2022-07-23T00:33:03;6.57;;;4.40;;
72895;SDS011;61036;53.224;6.554;2022-07-23T00:36:05;8.50;;;4.77;;
72895;SDS011;61036;53.224;6.554;2022-07-23T00:38:48;6.90;;;4.60;;
72895;SDS011;61036;53.224;6.554;2022-07-23T00:41:33;6.63;;;4.30;;
72895;SDS011;61036;53.224;6.554;2022-07-23T00:44:17;6.87;;;4.57;;
72895;SDS011;61036;53.224;6.554;2022-07-23T00:47:12;7.53;;;4.60;;
72895;SDS011;61036;53.224;6.554;2022-07-23T00:49:50;7.37;;;4.83;;
72895;SDS011;61036;53.224;6.554;2022-07-23T00:53:03;8.07;;;4.80;;
72895;SDS011;61036;53.224;6.554;2022-07-23T00:55:34;7.47;;;4.93;;
72895;SDS011;61036;53.224;6.554;2022-07-23T00:58:10;6.57;;;4.30;;
72895;SDS011;61036;53.224;6.554;2022-07-23T01:00:45;5.37;;;4.20;;
72895;SDS011;61036;53.224;6.554;2022-07-23T01:03:28;9.23;;;4.50;;
72895;SDS011;61036;53.224;6.554;2022-07-23T01:06:12;9.77;;;4.50;;
72895;SDS011;61036;53.224;6.554;2022-07-23T01:09:14;6.20;;;4.33;;
72895;SDS011;61036;53.224;6.554;2022-07-23T01:11:54;5.87;;;4.37;;
72895;SDS011;61036;53.224;6.554;2022-07-23T01:14:33;7.27;;;4.73;;
72895;SDS011;61036;53.224;6.554;2022-07-23T01:17:12;7.10;;;4.50;;
72895;SDS011;61036;53.224;6.554;2022-07-23T01:20:07;7.27;;;4.53;;
72895;SDS011;61036;53.224;6.554;2022-07-23T01:23:19;6.80;;;4.60;;
72895;SDS011;61036;53.224;6.554;2022-07-23T01:25:55;8.00;;;4.80;;
72895;SDS011;61036;53.224;6.554;2022-07-23T01:28:41;6.77;;;4.33;;
72895;SDS011;61036;53.224;6.554;2022-07-23T01:31:21;10.27;;;4.70;;
72895;SDS011;61036;53.224;6.554;2022-07-23T01:34:02;8.50;;;4.47;;
72895;SDS011;61036;53.224;6.554;2022-07-23T01:37:07;8.70;;;4.53;;
72895;SDS011;61036;53.224;6.554;2022-07-23T01:42:38;8.00;;;4.10;;
72895;SDS011;61036;53.224;6.554;2022-07-23T01:45:27;7.13;;;4.20;;
72895;SDS011;61036;53.224;6.554;2022-07-23T01:48:07;8.63;;;4.57;;
72895;SDS011;61036;53.224;6.554;2022-07-23T01:50:54;6.43;;;4.80;;
72895;SDS011;61036;53.224;6.554;2022-07-23T01:53:45;7.70;;;4.70;;
72895;SDS011;61036;53.224;6.554;2022-07-23T01:56:51;7.50;;;4.70;;
72895;SDS011;61036;53.224;6.554;2022-07-23T01:59:31;6.83;;;4.60;;
72895;SDS011;61036;53.224;6.554;2022-07-23T02:02:08;7.57;;;5.17;;
72895;SDS011;61036;53.224;6.554;2022-07-23T02:07:59;7.53;;;4.53;;
72895;SDS011;61036;53.224;6.554;2022-07-23T02:10:38;6.77;;;4.80;;
72895;SDS011;61036;53.224;6.554;2022-07-23T02:13:22;8.63;;;5.30;;
72895;SDS011;61036;53.224;6.554;2022-07-23T02:19:11;8.97;;;5.37;;
72895;SDS011;61036;53.224;6.554;2022-07-23T02:22:21;8.10;;;5.27;;
72895;SDS011;61036;53.224;6.554;2022-07-23T02:25:24;9.80;;;6.00;;
72895;SDS011;61036;53.224;6.554;2022-07-23T02:28:27;9.77;;;5.47;;
72895;SDS011;61036;53.224;6.554;2022-07-23T02:31:01;9.43;;;5.40;;
72895;SDS011;61036;53.224;6.554;2022-07-23T02:33:57;9.17;;;5.33;;
72895;SDS011;61036;53.224;6.554;2022-07-23T02:36:41;7.60;;;5.03;;
72895;SDS011;61036;53.224;6.554;2022-07-23T02:39:12;7.20;;;4.80;;
72895;SDS011;61036;53.224;6.554;2022-07-23T02:41:45;8.57;;;5.67;;
72895;SDS011;61036;53.224;6.554;2022-07-23T02:44:28;10.10;;;5.50;;
72895;SDS011;61036;53.224;6.554;2022-07-23T02:47:14;7.93;;;4.70;;
72895;SDS011;61036;53.224;6.554;2022-07-23T02:50:05;10.27;;;5.57;;
72895;SDS011;61036;53.224;6.554;2022-07-23T02:52:48;7.10;;;4.70;;
72895;SDS011;61036;53.224;6.554;2022-07-23T02:55:48;8.03;;;4.70;;
72895;SDS011;61036;53.224;6.554;2022-07-23T02:58:52;7.27;;;4.70;;
72895;SDS011;61036;53.224;6.554;2022-07-23T03:01:43;9.37;;;5.20;;
72895;SDS011;61036;53.224;6.554;2022-07-23T03:04:26;7.60;;;4.70;;
72895;SDS011;61036;53.224;6.554;2022-07-23T03:06:59;8.93;;;4.97;;
72895;SDS011;61036;53.224;6.554;2022-07-23T03:09:50;7.53;;;5.10;;
72895;SDS011;61036;53.224;6.554;2022-07-23T03:12:29;6.83;;;4.50;;
72895;SDS011;61036;53.224;6.554;2022-07-23T03:15:08;7.87;;;4.80;;
72895;SDS011;61036;53.224;6.554;2022-07-23T03:18:17;8.93;;;4.60;;
72895;SDS011;61036;53.224;6.554;2022-07-23T03:20:45;7.30;;;4.30;;
72895;SDS011;61036;53.224;6.554;2022-07-23T03:26:23;5.50;;;3.47;;
72895;SDS011;61036;53.224;6.554;2022-07-23T03:29:15;7.27;;;4.00;;
72895;SDS011;61036;53.224;6.554;2022-07-23T03:32:20;6.03;;;4.27;;
72895;SDS011;61036;53.224;6.554;2022-07-23T03:34:49;8.07;;;4.20;;
72895;SDS011;61036;53.224;6.554;2022-07-23T03:37:19;7.13;;;4.07;;
72895;SDS011;61036;53.224;6.554;2022-07-23T03:40:07;6.57;;;3.87;;
72895;SDS011;61036;53.224;6.554;2022-07-23T03:42:50;6.07;;;4.20;;
72895;SDS011;61036;53.224;6.554;2022-07-23T03:45:32;8.00;;;4.20;;
72895;SDS011;61036;53.224;6.554;2022-07-23T03:48:12;5.70;;;3.77;;
72895;SDS011;61036;53.224;6.554;2022-07-23T03:50:53;7.27;;;3.80;;
72895;SDS011;61036;53.224;6.554;2022-07-23T03:53:39;8.77;;;4.20;;
72895;SDS011;61036;53.224;6.554;2022-07-23T03:56:12;9.67;;;4.40;;
72895;SDS011;61036;53.224;6.554;2022-07-23T03:58:48;8.13;;;3.77;;
72895;SDS011;61036;53.224;6.554;2022-07-23T04:01:21;7.67;;;4.13;;
72895;SDS011;61036;53.224;6.554;2022-07-23T04:04:22;8.17;;;4.10;;
72895;SDS011;61036;53.224;6.554;2022-07-23T04:07:00;10.10;;;4.03;;
72895;SDS011;61036;53.224;6.554;2022-07-23T04:09:31;7.93;;;4.00;;
72895;SDS011;61036;53.224;6.554;2022-07-23T04:12:05;5.43;;;3.73;;
72895;SDS011;61036;53.224;6.554;2022-07-23T04:15:15;5.90;;;3.80;;
72895;SDS011;61036;53.224;6.554;2022-07-23T04:18:10;8.23;;;3.93;;
72895;SDS011;61036;53.224;6.554;2022-07-23T04:21:07;7.27;;;3.97;;
72895;SDS011;61036;53.224;6.554;2022-07-23T04:23:54;8.70;;;3.60;;
72895;SDS011;61036;53.224;6.554;2022-07-23T04:26:29;7.53;;;4.70;;
72895;SDS011;61036;53.224;6.554;2022-07-23T04:29:08;8.03;;;4.53;;
72895;SDS011;61036;53.224;6.554;2022-07-23T04:31:50;6.50;;;3.93;;
72895;SDS011;61036;53.224;6.554;2022-07-23T04:34:26;8.23;;;4.50;;
72895;SDS011;61036;53.224;6.554;2022-07-23T04:37:12;7.30;;;4.60;;
72895;SDS011;61036;53.224;6.554;2022-07-23T04:40:07;9.17;;;4.57;;
72895;SDS011;61036;53.224;6.554;2022-07-23T04:43:05;7.20;;;4.30;;
72895;SDS011;61036;53.224;6.554;2022-07-23T04:45:47;6.73;;;4.53;;
72895;SDS011;61036;53.224;6.554;2022-07-23T04:51:47;8.50;;;4.60;;
72895;SDS011;61036;53.224;6.554;2022-07-23T04:54:22;7.70;;;4.87;;
72895;SDS011;61036;53.224;6.554;2022-07-23T04:57:09;7.40;;;4.77;;
72895;SDS011;61036;53.224;6.554;2022-07-23T04:59:45;8.73;;;5.23;;
72895;SDS011;61036;53.224;6.554;2022-07-23T05:02:36;8.93;;;5.20;;
72895;SDS011;61036;53.224;6.554;2022-07-23T05:05:29;7.20;;;4.67;;
72895;SDS011;61036;53.224;6.554;2022-07-23T05:08:07;11.57;;;5.47;;
72895;SDS011;61036;53.224;6.554;2022-07-23T05:10:37;7.67;;;4.13;;
72895;SDS011;61036;53.224;6.554;2022-07-23T05:13:16;6.90;;;4.10;;
72895;SDS011;61036;53.224;6.554;2022-07-23T05:16:03;8.13;;;4.03;;
72895;SDS011;61036;53.224;6.554;2022-07-23T05:19:02;7.90;;;4.20;;
72895;SDS011;61036;53.224;6.554;2022-07-23T05:21:27;7.70;;;4.27;;
72895;SDS011;61036;53.224;6.554;2022-07-23T05:24:08;6.70;;;4.10;;
72895;SDS011;61036;53.224;6.554;2022-07-23T05:26:44;6.43;;;3.90;;
72895;SDS011;61036;53.224;6.554;2022-07-23T05:29:40;6.60;;;4.07;;
72895;SDS011;61036;53.224;6.554;2022-07-23T05:32:17;8.33;;;4.27;;
72895;SDS011;61036;53.224;6.554;2022-07-23T05:35:28;6.47;;;3.50;;
72895;SDS011;61036;53.224;6.554;2022-07-23T05:38:31;6.80;;;4.07;;
72895;SDS011;61036;53.224;6.554;2022-07-23T05:41:19;6.57;;;3.13;;
72895;SDS011;61036;53.224;6.554;2022-07-23T05:44:08;8.03;;;3.63;;
72895;SDS011;61036;53.224;6.554;2022-07-23T05:46:46;8.77;;;3.47;;
72895;SDS011;61036;53.224;6.554;2022-07-23T05:49:20;5.23;;;2.83;;
72895;SDS011;61036;53.224;6.554;2022-07-23T05:52:21;6.13;;;3.13;;
72895;SDS011;61036;53.224;6.554;2022-07-23T05:58:28;7.77;;;3.33;;
72895;SDS011;61036;53.224;6.554;2022-07-23T06:01:18;6.23;;;3.00;;
72895;SDS011;61036;53.224;6.554;2022-07-23T06:04:07;5.20;;;2.53;;
72895;SDS011;61036;53.224;6.554;2022-07-23T06:07:11;5.77;;;2.50;;
72895;SDS011;61036;53.224;6.554;2022-07-23T06:10:02;4.10;;;2.37;;
72895;SDS011;61036;53.224;6.554;2022-07-23T06:12:57;6.30;;;2.70;;
72895;SDS011;61036;53.224;6.554;2022-07-23T06:15:36;4.13;;;2.40;;
72895;SDS011;61036;53.224;6.554;2022-07-23T06:18:42;6.13;;;2.87;;
72895;SDS011;61036;53.224;6.554;2022-07-23T06:21:20;5.30;;;3.03;;
72895;SDS011;61036;53.224;6.554;2022-07-23T06:23:58;6.23;;;3.50;;
72895;SDS011;61036;53.224;6.554;2022-07-23T06:26:32;5.77;;;3.00;;
72895;SDS011;61036;53.224;6.554;2022-07-23T06:29:39;6.60;;;3.30;;
72895;SDS011;61036;53.224;6.554;2022-07-23T06:35:30;5.90;;;2.87;;
72895;SDS011;61036;53.224;6.554;2022-07-23T06:38:14;5.80;;;2.63;;
72895;SDS011;61036;53.224;6.554;2022-07-23T06:40:44;5.10;;;3.07;;
72895;SDS011;61036;53.224;6.554;2022-07-23T06:46:46;5.30;;;3.03;;
72895;SDS011;61036;53.224;6.554;2022-07-23T06:49:52;7.03;;;3.30;;
72895;SDS011;61036;53.224;6.554;2022-07-23T06:52:47;9.53;;;3.00;;
72895;SDS011;61036;53.224;6.554;2022-07-23T06:55:21;5.67;;;2.93;;
72895;SDS011;61036;53.224;6.554;2022-07-23T06:58:08;5.40;;;2.60;;
72895;SDS011;61036;53.224;6.554;2022-07-23T07:01:21;6.33;;;2.70;;
72895;SDS011;61036;53.224;6.554;2022-07-23T07:04:13;4.20;;;2.50;;
72895;SDS011;61036;53.224;6.554;2022-07-23T07:07:15;6.23;;;2.50;;
72895;SDS011;61036;53.224;6.554;2022-07-23T07:19:57;2.97;;;1.47;;
72895;SDS011;61036;53.224;6.554;2022-07-23T07:22:23;4.57;;;1.37;;
72895;SDS011;61036;53.224;6.554;2022-07-23T07:24:48;3.70;;;1.17;;
72895;SDS011;61036;53.224;6.554;2022-07-23T07:27:16;3.33;;;1.07;;
72895;SDS011;61036;53.224;6.554;2022-07-23T07:29:47;1.70;;;0.97;;
72895;SDS011;61036;53.224;6.554;2022-07-23T07:32:31;2.00;;;0.80;;
72895;SDS011;61036;53.224;6.554;2022-07-23T07:34:58;3.83;;;1.00;;
72895;SDS011;61036;53.224;6.554;2022-07-23T07:37:23;2.13;;;0.90;;
72895;SDS011;61036;53.224;6.554;2022-07-23T07:39:51;1.67;;;0.80;;
72895;SDS011;61036;53.224;6.554;2022-07-23T07:42:19;1.50;;;0.70;;
72895;SDS011;61036;53.224;6.554;2022-07-23T07:44:45;2.13;;;0.83;;
72895;SDS011;61036;53.224;6.554;2022-07-23T07:47:11;1.03;;;0.70;;
72895;SDS011;61036;53.224;6.554;2022-07-23T07:49:39;2.73;;;0.90;;
72895;SDS011;61036;53.224;6.554;2022-07-23T07:52:05;2.50;;;0.80;;
72895;SDS011;61036;53.224;6.554;2022-07-23T07:54:31;2.73;;;0.80;;
72895;SDS011;61036;53.224;6.554;2022-07-23T07:57:00;1.63;;;0.80;;
72895;SDS011;61036;53.224;6.554;2022-07-23T07:59:26;2.13;;;0.87;;
72895;SDS011;61036;53.224;6.554;2022-07-23T08:01:53;4.47;;;1.20;;
72895;SDS011;61036;53.224;6.554;2022-07-23T08:04:19;1.50;;;0.90;;
72895;SDS011;61036;53.224;6.554;2022-07-23T08:06:46;2.20;;;0.97;;
72895;SDS011;61036;53.224;6.554;2022-07-23T08:09:12;1.83;;;0.77;;
72895;SDS011;61036;53.224;6.554;2022-07-23T08:11:37;3.37;;;1.13;;
72895;SDS011;61036;53.224;6.554;2022-07-23T08:14:03;3.57;;;0.80;;
72895;SDS011;61036;53.224;6.554;2022-07-23T08:16:29;1.93;;;0.70;;
72895;SDS011;61036;53.224;6.554;2022-07-23T08:18:54;2.70;;;0.80;;
72895;SDS011;61036;53.224;6.554;2022-07-23T08:21:20;2.07;;;0.80;;
72895;SDS011;61036;53.224;6.554;2022-07-23T08:23:46;1.63;;;0.70;;
72895;SDS011;61036;53.224;6.554;2022-07-23T08:26:11;3.37;;;0.90;;
72895;SDS011;61036;53.224;6.554;2022-07-23T08:28:37;4.67;;;0.90;;
72895;SDS011;61036;53.224;6.554;2022-07-23T08:31:03;2.47;;;0.87;;
72895;SDS011;61036;53.224;6.554;2022-07-23T08:33:30;0.80;;;0.70;;
72895;SDS011;61036;53.224;6.554;2022-07-23T08:35:57;2.10;;;1.00;;
72895;SDS011;61036;53.224;6.554;2022-07-23T08:38:23;1.53;;;0.70;;
72895;SDS011;61036;53.224;6.554;2022-07-23T08:40:53;1.87;;;0.73;;
72895;SDS011;61036;53.224;6.554;2022-07-23T08:43:21;1.43;;;0.80;;
72895;SDS011;61036;53.224;6.554;2022-07-23T08:45:53;1.67;;;0.73;;
72895;SDS011;61036;53.224;6.554;2022-07-23T08:48:27;2.93;;;1.00;;
72895;SDS011;61036;53.224;6.554;2022-07-23T08:50:55;4.23;;;0.90;;
72895;SDS011;61036;53.224;6.554;2022-07-23T08:53:22;2.23;;;0.87;;
72895;SDS011;61036;53.224;6.554;2022-07-23T08:55:51;1.73;;;0.83;;
72895;SDS011;61036;53.224;6.554;2022-07-23T08:58:18;2.13;;;0.80;;
72895;SDS011;61036;53.224;6.554;2022-07-23T09:00:45;2.50;;;0.87;;
72895;SDS011;61036;53.224;6.554;2022-07-23T09:03:16;3.00;;;1.00;;
72895;SDS011;61036;53.224;6.554;2022-07-23T09:05:46;1.50;;;0.87;;
72895;SDS011;61036;53.224;6.554;2022-07-23T09:08:13;1.73;;;0.80;;
72895;SDS011;61036;53.224;6.554;2022-07-23T09:13:27;2.73;;;0.87;;
72895;SDS011;61036;53.224;6.554;2022-07-23T09:16:06;5.10;;;1.10;;
72895;SDS011;61036;53.224;6.554;2022-07-23T09:29:08;1.83;;;0.80;;
72895;SDS011;61036;53.224;6.554;2022-07-23T09:31:45;4.40;;;1.10;;
72895;SDS011;61036;53.224;6.554;2022-07-23T09:34:31;4.03;;;1.10;;
72895;SDS011;61036;53.224;6.554;2022-07-23T09:37:16;2.20;;;0.87;;
72895;SDS011;61036;53.224;6.554;2022-07-23T09:39:47;3.27;;;1.10;;
72895;SDS011;61036;53.224;6.554;2022-07-23T09:42:25;2.07;;;1.07;;
72895;SDS011;61036;53.224;6.554;2022-07-23T09:44:52;2.20;;;0.90;;
72895;SDS011;61036;53.224;6.554;2022-07-23T09:47:19;2.20;;;0.80;;
72895;SDS011;61036;53.224;6.554;2022-07-23T09:50:05;1.73;;;0.93;;
72895;SDS011;61036;53.224;6.554;2022-07-23T09:52:46;3.17;;;1.10;;
72895;SDS011;61036;53.224;6.554;2022-07-23T09:55:17;1.60;;;0.80;;
72895;SDS011;61036;53.224;6.554;2022-07-23T09:57:44;1.73;;;0.80;;
72895;SDS011;61036;53.224;6.554;2022-07-23T10:00:12;4.20;;;0.90;;
72895;SDS011;61036;53.224;6.554;2022-07-23T10:02:38;1.53;;;1.00;;
72895;SDS011;61036;53.224;6.554;2022-07-23T10:05:42;4.30;;;1.30;;
72895;SDS011;61036;53.224;6.554;2022-07-23T10:08:27;2.93;;;0.90;;
72895;SDS011;61036;53.224;6.554;2022-07-23T10:11:13;2.10;;;1.10;;
72895;SDS011;61036;53.224;6.554;2022-07-23T10:14:04;4.00;;;1.20;;
72895;SDS011;61036;53.224;6.554;2022-07-23T10:16:54;3.10;;;1.20;;
72895;SDS011;61036;53.224;6.554;2022-07-23T10:19:20;2.30;;;1.20;;
72895;SDS011;61036;53.224;6.554;2022-07-23T10:21:49;2.63;;;1.13;;
72895;SDS011;61036;53.224;6.554;2022-07-23T10:24:22;4.17;;;1.00;;
72895;SDS011;61036;53.224;6.554;2022-07-23T10:27:19;3.40;;;1.20;;
72895;SDS011;61036;53.224;6.554;2022-07-23T10:29:57;3.63;;;1.50;;
72895;SDS011;61036;53.224;6.554;2022-07-23T10:32:35;3.77;;;1.20;;
72895;SDS011;61036;53.224;6.554;2022-07-23T10:35:29;3.03;;;1.10;;
72895;SDS011;61036;53.224;6.554;2022-07-23T10:38:07;2.23;;;1.10;;
72895;SDS011;61036;53.224;6.554;2022-07-23T10:40:38;3.30;;;1.30;;
72895;SDS011;61036;53.224;6.554;2022-07-23T10:43:28;2.30;;;1.10;;
72895;SDS011;61036;53.224;6.554;2022-07-23T10:45:55;2.77;;;1.33;;
72895;SDS011;61036;53.224;6.554;2022-07-23T10:48:23;3.10;;;1.20;;
72895;SDS011;61036;53.224;6.554;2022-07-23T10:51:13;1.97;;;1.20;;
72895;SDS011;61036;53.224;6.554;2022-07-23T10:56:14;4.43;;;1.57;;
72895;SDS011;61036;53.224;6.554;2022-07-23T10:58:47;3.93;;;1.67;;
72895;SDS011;61036;53.224;6.554;2022-07-23T11:01:56;3.40;;;1.30;;
72895;SDS011;61036;53.224;6.554;2022-07-23T11:04:04;3.13;;;1.43;;
72895;SDS011;61036;53.224;6.554;2022-07-23T11:09:26;3.33;;;1.63;;
72895;SDS011;61036;53.224;6.554;2022-07-23T11:17:26;4.43;;;1.60;;
72895;SDS011;61036;53.224;6.554;2022-07-23T11:25:10;2.77;;;1.50;;
72895;SDS011;61036;53.224;6.554;2022-07-23T11:27:38;3.87;;;1.60;;
72895;SDS011;61036;53.224;6.554;2022-07-23T11:30:08;4.90;;;1.70;;
72895;SDS011;61036;53.224;6.554;2022-07-23T11:32:37;3.50;;;1.60;;
72895;SDS011;61036;53.224;6.554;2022-07-23T11:35:20;3.07;;;1.60;;
72895;SDS011;61036;53.224;6.554;2022-07-23T11:37:51;3.97;;;1.60;;
72895;SDS011;61036;53.224;6.554;2022-07-23T11:40:19;4.10;;;1.80;;
72895;SDS011;61036;53.224;6.554;2022-07-23T11:42:56;4.07;;;1.70;;
72895;SDS011;61036;53.224;6.554;2022-07-23T11:45:33;4.80;;;1.80;;
72895;SDS011;61036;53.224;6.554;2022-07-23T11:47:59;3.07;;;1.60;;
72895;SDS011;61036;53.224;6.554;2022-07-23T11:50:25;3.17;;;1.50;;
72895;SDS011;61036;53.224;6.554;2022-07-23T11:52:52;3.33;;;1.47;;
72895;SDS011;61036;53.224;6.554;2022-07-23T11:55:21;2.47;;;1.40;;
72895;SDS011;61036;53.224;6.554;2022-07-23T11:57:47;4.83;;;1.87;;
72895;SDS011;61036;53.224;6.554;2022-07-23T12:00:16;4.13;;;1.93;;
72895;SDS011;61036;53.224;6.554;2022-07-23T12:02:44;4.37;;;1.47;;
72895;SDS011;61036;53.224;6.554;2022-07-23T12:05:12;3.57;;;1.83;;
72895;SDS011;61036;53.224;6.554;2022-07-23T12:07:44;2.43;;;1.17;;
72895;SDS011;61036;53.224;6.554;2022-07-23T12:13:17;5.10;;;1.70;;
72895;SDS011;61036;53.224;6.554;2022-07-23T12:15:49;4.60;;;1.70;;
72895;SDS011;61036;53.224;6.554;2022-07-23T12:18:17;6.57;;;1.70;;
72895;SDS011;61036;53.224;6.554;2022-07-23T12:20:46;4.43;;;1.77;;
72895;SDS011;61036;53.224;6.554;2022-07-23T12:23:15;4.13;;;1.57;;
72895;SDS011;61036;53.224;6.554;2022-07-23T12:25:42;2.33;;;1.43;;
72895;SDS011;61036;53.224;6.554;2022-07-23T12:28:12;3.53;;;1.50;;
72895;SDS011;61036;53.224;6.554;2022-07-23T12:33:09;3.00;;;1.50;;
72895;SDS011;61036;53.224;6.554;2022-07-23T12:35:38;4.47;;;1.47;;
72895;SDS011;61036;53.224;6.554;2022-07-23T12:38:07;2.57;;;1.33;;
72895;SDS011;61036;53.224;6.554;2022-07-23T12:40:36;3.23;;;1.30;;
72895;SDS011;61036;53.224;6.554;2022-07-23T12:43:12;3.00;;;1.27;;
72895;SDS011;61036;53.224;6.554;2022-07-23T12:45:49;3.00;;;1.20;;
72895;SDS011;61036;53.224;6.554;2022-07-23T12:48:17;2.83;;;1.20;;
72895;SDS011;61036;53.224;6.554;2022-07-23T12:50:51;2.53;;;1.30;;
72895;SDS011;61036;53.224;6.554;2022-07-23T12:53:17;4.13;;;1.47;;
72895;SDS011;61036;53.224;6.554;2022-07-23T12:55:45;3.60;;;1.30;;
72895;SDS011;61036;53.224;6.554;2022-07-23T12:58:13;2.60;;;1.30;;
72895;SDS011;61036;53.224;6.554;2022-07-23T13:05:58;3.60;;;1.40;;
72895;SDS011;61036;53.224;6.554;2022-07-23T13:08:25;4.53;;;1.40;;
72895;SDS011;61036;53.224;6.554;2022-07-23T13:10:55;3.27;;;1.37;;
72895;SDS011;61036;53.224;6.554;2022-07-23T13:13:25;4.33;;;1.40;;
72895;SDS011;61036;53.224;6.554;2022-07-23T13:15:52;4.47;;;1.60;;
72895;SDS011;61036;53.224;6.554;2022-07-23T13:18:18;2.33;;;1.40;;
72895;SDS011;61036;53.224;6.554;2022-07-23T13:20:45;2.50;;;1.30;;
72895;SDS011;61036;53.224;6.554;2022-07-23T13:23:13;3.17;;;1.27;;
72895;SDS011;61036;53.224;6.554;2022-07-23T13:25:39;3.90;;;1.50;;
72895;SDS011;61036;53.224;6.554;2022-07-23T13:28:05;3.37;;;1.30;;
72895;SDS011;61036;53.224;6.554;2022-07-23T13:30:32;2.10;;;1.30;;
72895;SDS011;61036;53.224;6.554;2022-07-23T13:32:59;3.37;;;1.57;;
72895;SDS011;61036;53.224;6.554;2022-07-23T13:35:26;3.90;;;1.60;;
72895;SDS011;61036;53.224;6.554;2022-07-23T13:37:51;4.07;;;1.43;;
72895;SDS011;61036;53.224;6.554;2022-07-23T13:40:17;2.80;;;1.47;;
72895;SDS011;61036;53.224;6.554;2022-07-23T13:42:42;3.40;;;1.60;;
72895;SDS011;61036;53.224;6.554;2022-07-23T13:45:08;3.13;;;1.50;;
72895;SDS011;61036;53.224;6.554;2022-07-23T13:47:34;3.23;;;1.50;;
72895;SDS011;61036;53.224;6.554;2022-07-23T13:50:00;3.67;;;1.53;;
72895;SDS011;61036;53.224;6.554;2022-07-23T13:52:28;3.97;;;1.70;;
72895;SDS011;61036;53.224;6.554;2022-07-23T13:54:53;3.23;;;1.50;;
72895;SDS011;61036;53.224;6.554;2022-07-23T13:57:19;2.13;;;1.60;;
72895;SDS011;61036;53.224;6.554;2022-07-23T13:59:46;5.30;;;1.60;;
72895;SDS011;61036;53.224;6.554;2022-07-23T14:02:13;2.70;;;1.37;;
72895;SDS011;61036;53.224;6.554;2022-07-23T14:04:42;3.27;;;1.63;;
72895;SDS011;61036;53.224;6.554;2022-07-23T14:07:07;3.37;;;1.70;;
72895;SDS011;61036;53.224;6.554;2022-07-23T14:09:33;5.17;;;2.00;;
72895;SDS011;61036;53.224;6.554;2022-07-23T14:11:59;4.03;;;1.60;;
72895;SDS011;61036;53.224;6.554;2022-07-23T14:14:25;2.90;;;1.60;;
72895;SDS011;61036;53.224;6.554;2022-07-23T14:16:50;4.00;;;1.80;;
72895;SDS011;61036;53.224;6.554;2022-07-23T14:19:16;2.47;;;1.60;;
72895;SDS011;61036;53.224;6.554;2022-07-23T14:21:41;3.43;;;1.60;;
72895;SDS011;61036;53.224;6.554;2022-07-23T14:24:08;3.07;;;1.60;;
72895;SDS011;61036;53.224;6.554;2022-07-23T14:26:34;4.83;;;1.63;;
72895;SDS011;61036;53.224;6.554;2022-07-23T14:29:01;3.60;;;1.70;;
72895;SDS011;61036;53.224;6.554;2022-07-23T14:31:26;3.43;;;1.70;;
72895;SDS011;61036;53.224;6.554;2022-07-23T14:33:52;5.10;;;1.80;;
72895;SDS011;61036;53.224;6.554;2022-07-23T14:36:18;3.53;;;1.50;;
72895;SDS011;61036;53.224;6.554;2022-07-23T14:38:47;3.50;;;1.77;;
72895;SDS011;61036;53.224;6.554;2022-07-23T14:41:13;3.27;;;1.63;;
72895;SDS011;61036;53.224;6.554;2022-07-23T14:43:39;2.87;;;1.77;;
72895;SDS011;61036;53.224;6.554;2022-07-23T14:46:05;6.73;;;2.10;;
72895;SDS011;61036;53.224;6.554;2022-07-23T14:48:32;2.90;;;1.60;;
72895;SDS011;61036;53.224;6.554;2022-07-23T14:50:58;4.87;;;1.70;;
72895;SDS011;61036;53.224;6.554;2022-07-23T14:53:24;4.67;;;1.57;;
72895;SDS011;61036;53.224;6.554;2022-07-23T14:55:49;3.83;;;1.70;;
72895;SDS011;61036;53.224;6.554;2022-07-23T14:58:15;3.90;;;1.70;;
72895;SDS011;61036;53.224;6.554;2022-07-23T15:00:41;4.97;;;1.60;;
72895;SDS011;61036;53.224;6.554;2022-07-23T15:03:07;2.30;;;1.43;;
72895;SDS011;61036;53.224;6.554;2022-07-23T15:05:33;3.20;;;1.50;;
72895;SDS011;61036;53.224;6.554;2022-07-23T15:07:58;3.50;;;1.60;;
72895;SDS011;61036;53.224;6.554;2022-07-23T15:10:24;3.30;;;1.60;;
72895;SDS011;61036;53.224;6.554;2022-07-23T15:12:50;2.90;;;1.33;;
72895;SDS011;61036;53.224;6.554;2022-07-23T15:15:17;3.60;;;1.40;;
72895;SDS011;61036;53.224;6.554;2022-07-23T15:17:43;4.07;;;1.60;;
72895;SDS011;61036;53.224;6.554;2022-07-23T15:20:09;3.93;;;1.90;;
72895;SDS011;61036;53.224;6.554;2022-07-23T15:22:35;5.47;;;2.77;;
72895;SDS011;61036;53.224;6.554;2022-07-23T15:25:01;6.20;;;2.13;;
72895;SDS011;61036;53.224;6.554;2022-07-23T15:27:27;3.67;;;1.73;;
72895;SDS011;61036;53.224;6.554;2022-07-23T15:29:52;2.80;;;1.50;;
72895;SDS011;61036;53.224;6.554;2022-07-23T15:32:19;4.30;;;2.07;;
72895;SDS011;61036;53.224;6.554;2022-07-23T15:34:44;7.20;;;3.40;;
72895;SDS011;61036;53.224;6.554;2022-07-23T15:37:10;8.20;;;3.00;;
72895;SDS011;61036;53.224;6.554;2022-07-23T15:39:36;6.47;;;2.00;;
72895;SDS011;61036;53.224;6.554;2022-07-23T15:42:02;3.93;;;2.40;;
72895;SDS011;61036;53.224;6.554;2022-07-23T15:44:28;6.70;;;1.83;;
72895;SDS011;61036;53.224;6.554;2022-07-23T15:46:55;3.17;;;1.73;;
72895;SDS011;61036;53.224;6.554;2022-07-23T15:49:23;3.37;;;2.00;;
72895;SDS011;61036;53.224;6.554;2022-07-23T15:51:49;4.10;;;1.90;;
72895;SDS011;61036;53.224;6.554;2022-07-23T15:54:15;4.50;;;1.60;;
72895;SDS011;61036;53.224;6.554;2022-07-23T15:56:40;5.23;;;1.60;;
72895;SDS011;61036;53.224;6.554;2022-07-23T15:59:07;3.47;;;1.80;;
72895;SDS011;61036;53.224;6.554;2022-07-23T16:01:33;2.70;;;1.50;;
72895;SDS011;61036;53.224;6.554;2022-07-23T16:03:59;4.87;;;1.80;;
72895;SDS011;61036;53.224;6.554;2022-07-23T16:06:25;5.10;;;2.00;;
72895;SDS011;61036;53.224;6.554;2022-07-23T16:08:53;2.30;;;1.60;;
72895;SDS011;61036;53.224;6.554;2022-07-23T16:11:20;3.60;;;1.57;;
72895;SDS011;61036;53.224;6.554;2022-07-23T16:13:45;4.57;;;1.93;;
72895;SDS011;61036;53.224;6.554;2022-07-23T16:16:11;5.83;;;1.90;;
72895;SDS011;61036;53.224;6.554;2022-07-23T16:18:37;6.63;;;4.00;;
72895;SDS011;61036;53.224;6.554;2022-07-23T16:21:08;3.90;;;1.80;;
72895;SDS011;61036;53.224;6.554;2022-07-23T16:23:33;3.37;;;1.67;;
72895;SDS011;61036;53.224;6.554;2022-07-23T16:25:59;4.47;;;1.50;;
72895;SDS011;61036;53.224;6.554;2022-07-23T16:28:25;4.00;;;1.60;;
72895;SDS011;61036;53.224;6.554;2022-07-23T16:30:51;4.83;;;1.90;;
72895;SDS011;61036;53.224;6.554;2022-07-23T16:33:19;4.27;;;1.80;;
72895;SDS011;61036;53.224;6.554;2022-07-23T16:35:44;3.87;;;1.77;;
72895;SDS011;61036;53.224;6.554;2022-07-23T16:38:10;3.87;;;1.83;;
72895;SDS011;61036;53.224;6.554;2022-07-23T16:40:38;3.03;;;1.60;;
72895;SDS011;61036;53.224;6.554;2022-07-23T16:43:04;3.27;;;1.63;;
72895;SDS011;61036;53.224;6.554;2022-07-23T16:45:30;7.80;;;2.00;;
72895;SDS011;61036;53.224;6.554;2022-07-23T16:47:56;2.87;;;1.50;;
72895;SDS011;61036;53.224;6.554;2022-07-23T16:50:22;4.03;;;1.70;;
72895;SDS011;61036;53.224;6.554;2022-07-23T16:52:48;4.07;;;1.60;;
72895;SDS011;61036;53.224;6.554;2022-07-23T16:55:14;8.33;;;1.73;;
72895;SDS011;61036;53.224;6.554;2022-07-23T16:57:42;4.33;;;1.70;;